This is the latest recevied weather packets stored in our database for station/object KI5NYZ-13. If no packets are shown the sender has not sent any weather packets the latest 10 day(s).
| Time | Temp. | Humidity | Pressure | Rain* | Wind** | Luminosity | Snow |
|---|---|---|---|---|---|---|---|
| 1777610147 | 12.22° C | 90% | 1015.9 hPa | 0 mm | - | - | - |
| 1777608346 | 12.22° C | 89% | 1015.8 hPa | 0 mm | - | - | - |
| 1777606545 | 12.22° C | 88% | 1015.6 hPa | 0 mm | - | - | - |
| 1777604744 | 12.22° C | 88% | 1015 hPa | 0 mm | - | - | - |
| 1777602943 | 12.22° C | 88% | 1014.8 hPa | 0 mm | - | - | - |
| 1777601142 | 12.22° C | 89% | 1014.2 hPa | 0 mm | - | - | - |
| 1777597705 | 12.78° C | 86% | 1013.3 hPa | 0 mm | - | - | - |
| 1777595904 | 13.33° C | 85% | 1012.8 hPa | 0 mm | - | - | - |
| 1777594103 | 13.33° C | 86% | 1012.9 hPa | 0 mm | - | - | - |
| 1777592302 | 13.33° C | 83% | 1012 hPa | 0 mm | - | - | - |
| 1777590501 | 13.89° C | 80% | 1012.1 hPa | 0 mm | - | - | - |
| 1777588700 | 13.89° C | 80% | 1012.7 hPa | 0 mm | - | - | - |
| 1777585241 | 15° C | 69% | 1012.7 hPa | 0 mm | - | - | - |
| 1777583441 | 15° C | 70% | 1013.5 hPa | 0 mm | - | - | - |
| 1777581640 | 15° C | 73% | 1013.5 hPa | 0 mm | - | - | - |
| 1777579839 | 15° C | 66% | 1013.8 hPa | 0 mm | - | - | - |
| 1777578037 | 15° C | 66% | 1013.5 hPa | 0 mm | - | - | - |
| 1777576237 | 14.44° C | 68% | 1013.4 hPa | 0 mm | - | - | - |
| 1777574435 | 13.89° C | 68% | 1014.6 hPa | 0 mm | - | - | - |
| 1777572634 | 13.33° C | 70% | 1015 hPa | 0 mm | - | - | - |
| 1777570834 | 12.78° C | 69% | 1015.2 hPa | 0 mm | - | - | - |
| 1777569033 | 12.78° C | 70% | 1015.3 hPa | 0 mm | - | - | - |
| 1777567231 | 11.67° C | 71% | 1015.5 hPa | 0 mm | - | - | - |
| 1777565430 | 11.67° C | 72% | 1015.4 hPa | 0 mm | - | - | - |
| 1777563629 | 11.11° C | 73% | 1015.2 hPa | 0 mm | - | - | - |
* Rain latest hour (hover to see other rain measurements)
** Current wind speed in m/s (hover to see current wind gust speed)